Evansville Dress Regional Ai, Indiana
Current Conditions -  °F | °C
As of 12:13 PM on Sunday 25 Jan 2015 (Local Time) from KEVV Reporting Station
Light Rain Light Rain  
Wind Chill: 38°   Ceiling: 2300
Heat Index: 42°   Visibility: 8mi
Dew Point: 39°   Wind: 6mph
Humidity: 89%   Direction: 170°S
Pressure: 29.62"   Gusts: NA
Location:  38.0153°N, 87.5343°W
Report Text: KEVV 251813Z 17005KT 8SM -RA FEW009 OVC023 06/04 A2962 RMK AO2 P0001 T00560039
Loading
Personal Weather Stations






























Interactive Weather Map New forecast layout! Learn more

10-Day Weather Forecast

Advertisements
Track Severe Weather on mobile